Time;durP1;ratioP1;P1;durP2;ratioP2;P2;SDS_P1;SDS_P2;PMS_P1;PMS_P2;Temp;Humidity;BMP_temperature;BMP_pressure;BME280_temperature;BME280_humidity;BME280_pressure;Samples;Min_cycle;Max_cycle;Signal;HPM_P1;HPM_P2
2023/05/07 00:00:00;;;;;;;1.70;1.42;;;;;;;21.49;41.35;96535.41;5034580;28;20438;-29
2023/05/07 00:02:26;;;;;;;3.90;1.10;;;;;;;21.47;41.09;96529.63;5033973;28;20022;-29
2023/05/07 00:04:52;;;;;;;3.53;1.27;;;;;;;21.59;40.99;96535.94;5033755;28;20025;-29
2023/05/07 00:07:18;;;;;;;1.70;0.93;;;;;;;21.63;40.61;96533.69;5033793;28;20029;-29
2023/05/07 00:09:43;;;;;;;1.67;0.90;;;;;;;21.48;40.93;96537.41;5033823;28;20052;-29
2023/05/07 00:12:09;;;;;;;1.48;0.93;;;;;;;21.44;40.76;96538.88;5033787;28;20021;-31
2023/05/07 00:14:34;;;;;;;2.30;0.80;;;;;;;21.49;40.97;96535.41;5034142;28;20362;-29
2023/05/07 00:17:00;;;;;;;1.13;0.98;;;;;;;21.56;40.83;96543.19;5038825;28;20091;-29
2023/05/07 00:19:25;;;;;;;2.30;0.80;;;;;;;21.41;41.23;96548.91;5035615;28;20100;-29
2023/05/07 00:21:53;;;;;;;1.23;0.80;;;;;;;21.49;40.77;96554.72;5033678;28;20059;-30
2023/05/07 00:24:18;;;;;;;0.82;0.80;;;;;;;21.57;40.71;96555.75;5033895;28;20075;-31
2023/05/07 00:26:44;;;;;;;3.20;1.08;;;;;;;21.51;40.66;96552.22;5034043;28;20021;-30
2023/05/07 00:29:09;;;;;;;1.67;0.90;;;;;;;21.48;40.81;96561.47;5033901;28;20462;-32
2023/05/07 00:31:35;;;;;;;1.95;0.93;;;;;;;21.50;41.05;96559.00;5033645;28;20037;-29
2023/05/07 00:34:00;;;;;;;1.33;0.90;;;;;;;21.45;41.31;96554.19;5032261;28;20032;-29
2023/05/07 00:36:26;;;;;;;0.82;0.70;;;;;;;21.55;41.53;96554.72;5033443;28;20378;-29
2023/05/07 00:38:51;;;;;;;1.30;1.20;;;;;;;21.39;41.72;96561.69;5031883;28;20048;-30
2023/05/07 00:41:17;;;;;;;2.30;1.02;;;;;;;21.32;41.80;96556.63;5033550;28;20029;-29
2023/05/07 00:43:42;;;;;;;3.55;1.08;;;;;;;21.45;41.87;96545.91;5035270;28;20029;-29
2023/05/07 00:46:07;;;;;;;1.30;0.90;;;;;;;21.55;41.88;96552.72;5033370;28;20389;-29
2023/05/07 00:48:33;;;;;;;1.92;0.90;;;;;;;21.41;42.01;96551.66;5033366;28;20033;-29
2023/05/07 00:50:58;;;;;;;1.98;1.00;;;;;;;21.36;41.82;96554.41;5033106;28;20032;-30
2023/05/07 00:53:24;;;;;;;1.10;0.65;;;;;;;21.54;41.42;96553.97;5043080;28;20539;-29
2023/05/07 00:55:50;;;;;;;1.27;1.00;;;;;;;21.44;41.35;96549.91;5036669;28;20156;-29
2023/05/07 00:58:16;;;;;;;1.92;0.90;;;;;;;21.35;41.35;96542.63;5034113;28;20419;-29
2023/05/07 01:00:42;;;;;;;1.95;1.02;;;;;;;21.26;42.30;96539.31;5033243;28;20029;-29
2023/05/07 01:03:07;;;;;;;1.38;0.90;;;;;;;21.38;42.04;96549.16;5033234;28;20032;-29
2023/05/07 01:05:33;;;;;;;1.33;1.10;;;;;;;21.35;41.94;96550.13;5033342;28;20028;-29
2023/05/07 01:07:59;;;;;;;1.60;1.00;;;;;;;21.38;41.71;96554.69;5032793;28;20112;-29
2023/05/07 01:10:25;;;;;;;1.67;0.98;;;;;;;21.29;41.83;96541.06;5032902;28;20083;-29
2023/05/07 01:12:52;;;;;;;1.40;1.15;;;;;;;21.31;42.03;96547.59;5033436;28;20021;-30
2023/05/07 01:15:18;;;;;;;1.58;0.93;;;;;;;21.40;41.84;96552.16;5033120;28;20045;-30
2023/05/07 01:17:43;;;;;;;2.10;0.80;;;;;;;21.37;41.90;96553.16;5033854;28;20064;-29
2023/05/07 01:20:10;;;;;;;3.22;1.00;;;;;;;21.38;41.91;96554.69;5032775;28;20025;-29
2023/05/07 01:22:37;;;;;;;2.13;0.80;;;;;;;21.34;42.03;96551.38;5032927;28;20040;-29
2023/05/07 01:25:04;;;;;;;1.27;1.08;;;;;;;21.32;41.59;96559.41;5033145;28;20417;-29
2023/05/07 01:27:29;;;;;;;1.40;1.00;;;;;;;21.26;41.55;96555.88;5033738;28;20095;-29
2023/05/07 01:29:58;;;;;;;1.58;1.27;;;;;;;21.12;41.41;96557.53;5036936;28;20044;-30
2023/05/07 01:32:33;;;;;;;2.42;1.40;;;;;;;21.22;41.36;96547.06;5036781;28;20028;-29
2023/05/07 01:35:01;;;;;;;2.60;1.00;;;;;;;21.26;41.28;96550.34;5044397;28;20021;-30
2023/05/07 01:37:27;;;;;;;1.42;1.20;;;;;;;21.43;40.81;96545.66;5036848;28;20049;-29
2023/05/07 01:39:53;;;;;;;2.65;1.30;;;;;;;21.26;41.07;96539.31;5039632;28;20095;-30
2023/05/07 01:42:18;;;;;;;5.13;1.40;;;;;;;21.32;41.07;96543.59;5036855;28;20017;-29
2023/05/07 01:44:44;;;;;;;2.88;1.42;;;;;;;21.17;41.52;96545.75;5036404;28;20027;-30
2023/05/07 01:47:10;;;;;;;3.20;1.20;;;;;;;21.23;41.32;96543.81;5036504;28;20025;-29
2023/05/07 01:49:35;;;;;;;2.05;1.00;;;;;;;21.20;41.31;96542.03;5035216;28;20083;-29
2023/05/07 01:52:01;;;;;;;1.77;1.10;;;;;;;21.19;41.06;96548.03;5036541;28;20029;-29
2023/05/07 01:54:27;;;;;;;1.73;1.40;;;;;;;21.19;41.32;96545.28;5036166;28;20119;-30
2023/05/07 01:56:53;;;;;;;1.45;1.23;;;;;;;21.22;41.60;96544.31;5036156;28;20428;-29
2023/05/07 01:59:19;;;;;;;2.20;1.15;;;;;;;21.24;41.21;96539.81;5036915;28;20029;-30
2023/05/07 02:01:44;;;;;;;1.20;1.00;;;;;;;21.29;41.48;96541.06;5036152;28;20052;-29
2023/05/07 02:04:10;;;;;;;1.75;0.95;;;;;;;21.16;41.45;96545.00;5036514;28;20075;-29
2023/05/07 02:06:35;;;;;;;1.83;0.90;;;;;;;21.11;41.83;96539.47;5036050;28;20057;-29
2023/05/07 02:09:01;;;;;;;1.20;0.80;;;;;;;20.99;42.13;96538.66;5036311;28;20461;-29
2023/05/07 02:11:26;;;;;;;2.40;0.90;;;;;;;21.27;41.40;96535.28;5036079;28;20036;-30
2023/05/07 02:13:52;;;;;;;2.20;1.00;;;;;;;21.19;42.18;96534.25;5036310;28;20092;-29
2023/05/07 02:16:19;;;;;;;1.88;1.10;;;;;;;21.25;41.98;96524.78;5036130;28;20477;-30
2023/05/07 02:18:44;;;;;;;1.10;0.90;;;;;;;21.19;42.01;96526.75;5036174;28;20385;-29
2023/05/07 02:21:09;;;;;;;2.88;1.00;;;;;;;21.14;42.03;96527.47;5035967;28;20040;-29
2023/05/07 02:23:35;;;;;;;1.67;1.30;;;;;;;21.11;41.92;96528.44;5035665;28;20049;-29
2023/05/07 02:26:06;;;;;;;1.83;1.08;;;;;;;21.24;41.64;96525.28;5035832;28;20074;-29
2023/05/07 02:28:32;;;;;;;2.72;1.20;;;;;;;21.15;42.06;96524.19;5034836;28;20022;-29
2023/05/07 02:31:00;;;;;;;2.15;1.10;;;;;;;21.23;41.90;96523.75;5035803;28;20021;-30
2023/05/07 02:33:26;;;;;;;3.45;1.00;;;;;;;21.06;41.64;96521.63;5035754;28;20013;-29
2023/05/07 02:35:51;;;;;;;1.60;1.00;;;;;;;20.88;41.83;96521.28;5035372;28;20841;-30
2023/05/07 02:38:17;;;;;;;1.17;0.90;;;;;;;20.90;41.47;96519.53;5035970;28;20032;-30
2023/05/07 02:40:42;;;;;;;2.08;1.00;;;;;;;20.86;41.69;96516.28;5034783;28;20377;-29
2023/05/07 02:43:08;;;;;;;1.98;0.70;;;;;;;21.04;41.33;96518.63;5035644;28;20476;-30
2023/05/07 02:45:33;;;;;;;1.98;1.00;;;;;;;21.08;41.10;96519.16;5034154;28;20125;-30
2023/05/07 02:47:59;;;;;;;1.10;0.88;;;;;;;21.05;41.66;96513.84;5035347;28;20108;-29
2023/05/07 02:50:27;;;;;;;1.42;0.93;;;;;;;21.15;41.34;96518.66;5035546;28;20025;-30
2023/05/07 02:52:53;;;;;;;0.85;0.80;;;;;;;20.98;41.76;96515.09;5044601;28;20363;-31
2023/05/07 02:55:18;;;;;;;2.75;0.90;;;;;;;21.08;41.88;96515.63;5035410;28;20041;-29
2023/05/07 02:57:44;;;;;;;1.20;1.00;;;;;;;20.96;41.86;96512.06;5035386;28;20029;-29
2023/05/07 03:00:17;;;;;;;1.02;0.88;;;;;;;20.66;42.98;96500.59;5035143;28;20025;-29
2023/05/07 03:02:44;;;;;;;1.70;1.15;;;;;;;20.85;42.62;96508.50;5034074;28;20025;-30
2023/05/07 03:05:09;;;;;;;1.50;0.90;;;;;;;20.59;43.50;96511.31;5035193;28;20029;-30
2023/05/07 03:07:36;;;;;;;1.63;1.15;;;;;;;20.88;43.31;96511.03;5035028;28;20055;-29
2023/05/07 03:10:01;;;;;;;1.73;1.20;;;;;;;20.85;43.90;96508.50;5034032;28;20428;-29
2023/05/07 03:12:27;;;;;;;2.47;1.63;;;;;;;20.70;44.63;96500.38;5034911;28;20029;-29
2023/05/07 03:14:52;;;;;;;5.32;1.83;;;;;;;20.91;44.71;96496.22;5034996;28;20029;-30
2023/05/07 03:17:18;;;;;;;3.47;2.10;;;;;;;20.66;46.02;96499.84;5042257;28;20017;-29
2023/05/07 03:19:43;;;;;;;4.22;2.40;;;;;;;20.75;46.74;96491.41;5034626;28;20025;-29
2023/05/07 03:22:08;;;;;;;4.05;2.28;;;;;;;20.57;47.17;96489.78;5035247;28;20017;-29
2023/05/07 03:24:34;;;;;;;2.92;2.08;;;;;;;20.84;46.36;96495.94;5034444;28;20501;-29
2023/05/07 03:27:01;;;;;;;2.90;1.95;;;;;;;20.92;45.68;96489.47;5034989;28;20033;-32
2023/05/07 03:29:26;;;;;;;3.88;2.28;;;;;;;20.74;46.09;96495.41;5034791;28;20028;-29
2023/05/07 03:31:52;;;;;;;4.20;2.53;;;;;;;20.64;46.36;96491.34;5034651;28;20018;-29
2023/05/07 03:34:21;;;;;;;3.63;2.45;;;;;;;20.78;46.89;96485.63;5034410;28;20096;-31
2023/05/07 03:36:50;;;;;;;4.65;2.92;;;;;;;20.83;46.81;96489.69;5034899;28;20021;-29
2023/05/07 03:39:15;;;;;;;4.22;2.90;;;;;;;20.89;46.42;96484.97;5038368;28;20017;-30
2023/05/07 03:41:42;;;;;;;6.20;3.10;;;;;;;20.87;46.66;96483.94;5034484;28;20385;-29
2023/05/07 03:44:07;;;;;;;5.00;3.15;;;;;;;20.90;46.54;96491.97;5034516;28;20025;-30
2023/05/07 03:46:33;;;;;;;6.90;4.03;;;;;;;20.95;46.54;96485.75;5034469;28;20036;-30
2023/05/07 03:48:59;;;;;;;5.07;3.60;;;;;;;20.75;47.37;96496.91;5034387;28;20044;-29
2023/05/07 03:51:26;;;;;;;6.93;3.85;;;;;;;20.79;47.34;96491.91;5034146;28;20021;-29
2023/05/07 03:53:56;;;;;;;4.53;3.60;;;;;;;20.74;47.30;96490.66;5034108;28;20032;-30
2023/05/07 03:56:22;;;;;;;5.30;3.45;;;;;;;20.75;47.36;96491.41;5034068;28;20045;-30
2023/05/07 03:58:48;;;;;;;5.78;3.65;;;;;;;20.48;47.83;96498.25;5034696;28;20347;-29
2023/05/07 04:01:14;;;;;;;4.82;3.58;;;;;;;20.73;47.41;96488.38;5034039;28;20031;-29
2023/05/07 04:03:39;;;;;;;5.60;3.70;;;;;;;20.96;47.30;96495.53;5032901;28;20017;-30
2023/05/07 04:06:05;;;;;;;5.95;4.70;;;;;;;20.57;48.90;96500.78;5033923;28;20493;-29
2023/05/07 04:08:31;;;;;;;6.05;4.65;;;;;;;20.74;48.60;96503.66;5034334;28;20035;-29
2023/05/07 04:10:57;;;;;;;5.72;4.57;;;;;;;20.82;48.16;96496.44;5033849;28;20028;-29
2023/05/07 04:13:22;;;;;;;6.53;5.50;;;;;;;20.59;49.31;96497.56;5033539;28;20017;-29
2023/05/07 04:15:52;;;;;;;7.65;5.05;;;;;;;20.68;49.05;96500.09;5033911;28;20264;-30
2023/05/07 04:18:18;;;;;;;6.13;4.85;;;;;;;20.63;49.48;96500.84;5041159;28;20075;-29
2023/05/07 04:20:43;;;;;;;7.50;4.88;;;;;;;20.75;49.21;96505.94;5032684;28;20021;-29
2023/05/07 04:23:08;;;;;;;7.22;5.03;;;;;;;20.80;49.34;96505.19;5033635;28;20021;-29
2023/05/07 04:25:34;;;;;;;8.27;4.80;;;;;;;20.75;49.28;96507.94;5033440;28;20377;-30
2023/05/07 04:28:00;;;;;;;6.45;4.88;;;;;;;20.58;50.12;96507.06;5033740;28;20026;-29
2023/05/07 04:30:25;;;;;;;7.18;4.63;;;;;;;20.73;49.49;96507.66;5033912;28;20021;-29
2023/05/07 04:32:51;;;;;;;9.23;4.93;;;;;;;20.57;50.34;96511.06;5033726;28;20017;-30
2023/05/07 04:35:17;;;;;;;9.68;5.57;;;;;;;20.67;50.08;96517.88;5033715;28;20022;-29
2023/05/07 04:37:42;;;;;;;7.38;5.57;;;;;;;20.59;50.46;96523.09;5032167;28;20501;-29
2023/05/07 04:40:08;;;;;;;9.55;6.15;;;;;;;20.73;50.30;96529.72;5032267;28;20448;-29
2023/05/07 04:42:33;;;;;;;10.73;7.28;;;;;;;20.70;50.71;96525.19;5033534;28;20032;-29
2023/05/07 04:45:00;;;;;;;8.73;6.10;;;;;;;20.52;51.56;96522.81;5036394;28;20035;-29
2023/05/07 04:47:25;;;;;;;9.45;6.88;;;;;;;20.72;51.46;96526.19;5039094;28;20445;-29
2023/05/07 04:49:50;;;;;;;9.38;6.82;;;;;;;20.61;51.76;96525.38;5033165;28;20033;-29
2023/05/07 04:52:16;;;;;;;8.70;6.00;;;;;;;20.78;51.48;96528.97;5033149;28;20025;-29
2023/05/07 04:54:43;;;;;;;10.00;7.20;;;;;;;20.80;51.35;96530.00;5033259;28;20441;-29
2023/05/07 04:57:08;;;;;;;9.00;6.85;;;;;;;20.62;51.81;96535.16;5033022;28;20029;-29
2023/05/07 04:59:34;;;;;;;7.55;6.15;;;;;;;20.55;52.03;96532.84;5033439;28;20021;-30
2023/05/07 05:01:59;;;;;;;9.15;6.82;;;;;;;20.66;51.86;96530.16;5032827;28;20056;-30
2023/05/07 05:04:25;;;;;;;9.90;7.22;;;;;;;20.82;51.53;96537.78;5033224;28;20029;-29
2023/05/07 05:06:51;;;;;;;9.60;6.80;;;;;;;20.91;51.18;96543.09;5032962;28;20080;-29
2023/05/07 05:09:16;;;;;;;8.75;6.95;;;;;;;20.73;51.70;96540.75;5032815;28;20381;-30
2023/05/07 05:11:42;;;;;;;9.18;6.40;;;;;;;20.61;52.53;96539.91;5033054;28;20024;-29
2023/05/07 05:14:07;;;;;;;10.10;7.03;;;;;;;20.60;52.63;96540.41;5033216;28;20466;-30
2023/05/07 05:16:33;;;;;;;9.23;7.45;;;;;;;20.67;52.34;96542.69;5033599;28;20021;-29
2023/05/07 05:18:58;;;;;;;8.98;6.75;;;;;;;20.67;52.45;96548.19;5033014;28;20033;-29
2023/05/07 05:21:24;;;;;;;8.32;6.72;;;;;;;20.77;52.33;96553.03;5033169;28;20018;-30
2023/05/07 05:23:49;;;;;;;8.40;6.97;;;;;;;20.90;51.94;96546.34;5032958;28;20021;-29
2023/05/07 05:26:15;;;;;;;7.63;6.35;;;;;;;20.84;52.20;96554.59;5032824;28;20413;-30
2023/05/07 05:28:40;;;;;;;8.13;6.20;;;;;;;20.83;52.27;96550.31;5032615;28;20075;-29
2023/05/07 05:31:06;;;;;;;10.63;6.60;;;;;;;20.91;51.81;96553.38;5037190;28;20458;-30
2023/05/07 05:33:31;;;;;;;9.43;7.05;;;;;;;21.02;51.40;96554.19;5031940;28;20026;-29
2023/05/07 05:35:56;;;;;;;7.93;6.07;;;;;;;20.90;52.12;96549.84;5040389;28;20528;-30
2023/05/07 05:38:23;;;;;;;8.80;5.95;;;;;;;21.03;51.34;96552.19;5032805;28;20490;-29
2023/05/07 05:40:49;;;;;;;8.52;5.75;;;;;;;20.96;51.67;96558.94;5032675;28;20075;-29
2023/05/07 05:43:15;;;;;;;8.40;6.30;;;;;;;21.05;51.21;96553.22;5045676;28;20109;-29
2023/05/07 05:45:40;;;;;;;10.55;6.10;;;;;;;21.08;51.33;96563.25;5032503;28;20029;-29
2023/05/07 05:48:06;;;;;;;6.78;5.20;;;;;;;21.02;51.18;96559.69;5039843;28;20013;-30
2023/05/07 05:50:32;;;;;;;6.82;4.90;;;;;;;21.20;50.23;96558.59;5032869;28;20021;-29
2023/05/07 05:52:58;;;;;;;6.13;4.90;;;;;;;21.12;50.58;96555.53;5032476;28;20032;-30
2023/05/07 05:55:23;;;;;;;5.43;3.78;;;;;;;21.21;50.25;96564.88;5032385;28;20060;-29
2023/05/07 05:57:50;;;;;;;6.10;3.67;;;;;;;21.20;49.85;96563.34;5033061;28;20454;-30
2023/05/07 06:00:16;;;;;;;4.65;3.40;;;;;;;21.17;49.73;96565.81;5032790;28;20091;-29
2023/05/07 06:02:42;;;;;;;3.88;3.10;;;;;;;21.17;49.42;96574.09;5032561;28;20030;-29
2023/05/07 06:05:08;;;;;;;3.08;2.67;;;;;;;21.15;49.59;96567.56;5032810;28;20029;-29
2023/05/07 06:07:34;;;;;;;3.53;2.45;;;;;;;21.24;48.31;96566.63;5032627;28;20075;-29
2023/05/07 06:10:00;;;;;;;3.30;2.03;;;;;;;21.19;48.05;96567.34;5032346;28;20025;-29
2023/05/07 06:12:25;;;;;;;3.13;2.10;;;;;;;21.32;47.75;96564.91;5032480;28;20409;-29
2023/05/07 06:14:51;;;;;;;2.60;2.28;;;;;;;21.36;47.59;96573.72;5033878;28;20366;-29
2023/05/07 06:17:16;;;;;;;4.55;2.70;;;;;;;21.34;48.18;96567.94;5036820;28;20021;-30
2023/05/07 06:19:42;;;;;;;5.07;2.70;;;;;;;21.40;48.34;96565.94;5036034;28;20021;-29
2023/05/07 06:22:07;;;;;;;4.18;2.50;;;;;;;21.30;48.30;96559.88;5036037;28;20029;-29
2023/05/07 06:24:33;;;;;;;3.05;2.13;;;;;;;21.15;48.75;96557.28;5036048;28;20025;-29
2023/05/07 06:26:58;;;;;;;3.15;2.03;;;;;;;21.27;48.33;96558.13;5035860;28;20461;-30
2023/05/07 06:29:30;;;;;;;4.28;2.05;;;;;;;21.42;47.31;96557.94;5035889;28;20079;-29
2023/05/07 06:31:55;;;;;;;2.38;1.80;;;;;;;21.44;46.51;96563.72;5043278;28;20022;-30
2023/05/07 06:34:21;;;;;;;2.58;1.67;;;;;;;21.39;46.99;96564.44;5035853;28;20033;-30
2023/05/07 06:36:46;;;;;;;2.28;1.88;;;;;;;21.24;47.20;96570.16;5035633;28;20071;-30
2023/05/07 06:39:11;;;;;;;4.40;2.20;;;;;;;21.34;47.28;96567.94;5035949;28;20369;-30
2023/05/07 06:41:37;;;;;;;4.22;2.00;;;;;;;21.38;47.17;96571.22;5043459;28;20032;-29
2023/05/07 06:44:03;;;;;;;5.90;1.67;;;;;;;21.49;47.37;96576.78;5042987;28;20044;-30
2023/05/07 06:46:28;;;;;;;2.53;1.85;;;;;;;21.48;46.96;96575.28;5035764;28;20022;-30
2023/05/07 06:48:54;;;;;;;1.92;1.75;;;;;;;21.56;46.73;96573.56;5035640;28;20021;-29
2023/05/07 06:51:19;;;;;;;9.82;2.40;;;;;;;21.46;46.69;96575.03;5033975;28;20023;-29
2023/05/07 06:53:45;;;;;;;3.08;2.13;;;;;;;21.42;46.68;96569.72;5043972;28;20052;-31
2023/05/07 06:56:10;;;;;;;3.97;1.92;;;;;;;21.31;46.64;96566.91;5034703;28;20049;-30
2023/05/07 06:58:35;;;;;;;3.30;2.30;;;;;;;21.37;46.60;96572.47;5039786;28;20029;-30
2023/05/07 07:01:01;;;;;;;2.72;2.10;;;;;;;21.52;46.70;96573.78;5037671;28;20029;-29
2023/05/07 07:03:26;;;;;;;4.03;2.45;;;;;;;21.31;46.94;96582.72;5035276;28;20021;-30
2023/05/07 07:05:54;;;;;;;6.60;2.35;;;;;;;21.29;46.94;96582.44;5033756;28;20112;-30
2023/05/07 07:08:21;;;;;;;3.55;2.00;;;;;;;21.54;46.21;96575.28;5035024;28;20087;-29
2023/05/07 07:10:47;;;;;;;2.60;1.70;;;;;;;21.54;46.41;96576.03;5034992;28;20022;-29
2023/05/07 07:13:14;;;;;;;2.63;1.90;;;;;;;21.65;45.87;96573.31;5035000;28;20104;-29
2023/05/07 07:15:39;;;;;;;3.08;2.22;;;;;;;21.35;45.99;96583.25;5034971;28;20024;-28
2023/05/07 07:18:06;;;;;;;2.72;1.92;;;;;;;21.55;45.99;96574.78;5035109;28;20025;-30
2023/05/07 07:20:31;;;;;;;3.70;2.03;;;;;;;21.49;46.19;96576.78;5034898;28;20032;-30
2023/05/07 07:22:56;;;;;;;3.58;2.50;;;;;;;21.46;46.72;96577.78;5033323;28;20030;-31
2023/05/07 07:25:23;;;;;;;4.53;2.00;;;;;;;21.79;46.16;96580.66;5035840;28;20027;-29
2023/05/07 07:27:49;;;;;;;2.40;1.65;;;;;;;21.56;46.49;96590.09;5034617;28;20351;-29
2023/05/07 07:30:15;;;;;;;2.88;1.77;;;;;;;21.62;45.61;96585.38;5034520;28;20024;-29
2023/05/07 07:32:40;;;;;;;3.60;1.90;;;;;;;21.88;44.98;96592.75;5034518;28;20029;-30
2023/05/07 07:35:06;;;;;;;1.85;1.30;;;;;;;21.70;45.79;96591.94;5034775;28;20029;-30
2023/05/07 07:37:32;;;;;;;2.92;1.50;;;;;;;21.78;45.43;96589.44;5034877;28;20025;-29
2023/05/07 07:39:57;;;;;;;2.58;1.52;;;;;;;21.62;45.65;96590.91;5034704;28;20060;-30
2023/05/07 07:42:23;;;;;;;3.72;1.38;;;;;;;21.79;45.64;96591.69;5034339;28;20025;-29
2023/05/07 07:44:48;;;;;;;4.07;1.20;;;;;;;21.84;45.12;96585.44;5034556;28;20385;-30
2023/05/07 07:47:13;;;;;;;2.85;1.42;;;;;;;21.80;44.98;96590.44;5034496;28;20013;-29
2023/05/07 07:49:40;;;;;;;2.33;1.13;;;;;;;21.80;45.47;96590.44;5034604;28;20026;-29
2023/05/07 07:52:06;;;;;;;1.73;1.45;;;;;;;21.69;45.88;96597.94;5034233;28;20025;-30
2023/05/07 07:54:32;;;;;;;2.53;1.10;;;;;;;21.77;45.43;96588.69;5033914;28;20033;-29
2023/05/07 07:56:57;;;;;;;1.63;1.20;;;;;;;21.73;45.61;96593.69;5034102;28;20112;-29
2023/05/07 07:59:23;;;;;;;2.13;1.20;;;;;;;21.85;45.07;96595.25;5041195;28;20067;-30
2023/05/07 08:01:50;;;;;;;2.05;1.30;;;;;;;21.78;44.96;96601.22;5034165;28;20033;-29
2023/05/07 08:04:16;;;;;;;1.48;0.98;;;;;;;21.69;45.03;96593.19;5034297;28;20022;-29
2023/05/07 08:06:42;;;;;;;1.40;0.95;;;;;;;21.77;44.78;96601.72;5034001;28;20028;-30
2023/05/07 08:09:08;;;;;;;1.98;1.35;;;;;;;21.93;43.80;96594.75;5033660;28;20449;-29
2023/05/07 08:11:33;;;;;;;4.00;2.30;;;;;;;21.90;44.13;96592.97;5033873;28;20029;-30
2023/05/07 08:13:59;;;;;;;4.22;2.20;;;;;;;21.88;44.44;96603.78;5033877;28;20025;-30
2023/05/07 08:16:25;;;;;;;4.60;1.55;;;;;;;21.87;44.32;96603.03;5033514;28;20025;-29
2023/05/07 08:18:50;;;;;;;2.72;1.65;;;;;;;21.80;44.43;96603.50;5034173;28;20057;-30
2023/05/07 08:21:16;;;;;;;2.00;1.63;;;;;;;21.91;44.42;96608.28;5033920;28;20021;-30
2023/05/07 08:23:42;;;;;;;2.60;1.40;;;;;;;21.92;44.07;96609.81;5034250;28;20025;-29
2023/05/07 08:26:08;;;;;;;2.22;1.20;;;;;;;21.96;44.23;96610.34;5033821;28;20021;-29
2023/05/07 08:28:35;;;;;;;3.08;1.20;;;;;;;21.93;44.50;96606.56;5032365;28;20101;-30
2023/05/07 08:31:00;;;;;;;3.03;1.63;;;;;;;22.03;44.70;96609.88;5033646;28;20083;-30
2023/05/07 08:33:26;;;;;;;3.40;2.10;;;;;;;21.95;45.00;96609.56;5033619;28;20385;-29
2023/05/07 08:35:52;;;;;;;3.88;2.00;;;;;;;22.00;44.97;96617.16;5033265;28;20017;-30
2023/05/07 08:38:17;;;;;;;3.63;1.52;;;;;;;22.03;45.57;96609.88;5032971;28;20354;-29
2023/05/07 08:40:43;;;;;;;4.13;1.90;;;;;;;21.98;45.37;96613.34;5037540;28;20488;-29
2023/05/07 08:43:12;;;;;;;6.35;2.10;;;;;;;21.95;45.72;96606.06;5033702;28;20049;-30
2023/05/07 08:45:39;;;;;;;2.58;1.55;;;;;;;21.96;45.79;96613.09;5033746;28;20022;-30
2023/05/07 08:48:10;;;;;;;2.75;1.67;;;;;;;22.00;45.81;96616.41;5033558;28;20021;-29
2023/05/07 08:50:36;;;;;;;4.25;1.80;;;;;;;22.07;45.72;96599.34;5033552;28;20025;-30
2023/05/07 08:53:05;;;;;;;3.33;1.85;;;;;;;21.99;45.93;96612.91;5031839;28;20021;-29
2023/05/07 08:55:31;;;;;;;2.47;1.73;;;;;;;21.98;46.08;96618.88;5033136;28;20045;-30
2023/05/07 08:57:56;;;;;;;2.10;1.38;;;;;;;22.03;46.05;96616.16;5040358;28;20026;-29
2023/05/07 09:00:23;;;;;;;2.35;1.50;;;;;;;22.08;45.78;96622.94;5040771;28;20400;-30
2023/05/07 09:02:48;;;;;;;1.75;1.20;;;;;;;22.09;45.76;96618.94;5033169;28;20040;-29
2023/05/07 09:05:14;;;;;;;3.88;1.40;;;;;;;22.01;45.93;96617.88;5033053;28;20021;-31
2023/05/07 09:07:39;;;;;;;2.72;1.65;;;;;;;22.01;45.56;96612.38;5033090;28;20047;-29
2023/05/07 09:10:06;;;;;;;3.72;1.80;;;;;;;22.07;45.84;96621.44;5033092;28;20021;-31
2023/05/07 09:12:31;;;;;;;2.63;1.60;;;;;;;22.08;45.24;96609.91;5040383;28;20025;-30
2023/05/07 09:14:59;;;;;;;3.42;1.83;;;;;;;22.14;45.20;96615.41;5032905;28;20028;-31
2023/05/07 09:17:25;;;;;;;2.50;1.40;;;;;;;22.09;45.05;96610.66;5032875;28;20112;-29
2023/05/07 09:19:50;;;;;;;1.65;1.27;;;;;;;22.15;44.87;96608.66;5032797;28;20168;-29
2023/05/07 09:22:16;;;;;;;13.35;9.55;;;;;;;22.20;45.20;96608.66;5032957;28;20064;-29
2023/05/07 09:24:47;;;;;;;9.65;8.43;;;;;;;22.10;45.17;96614.94;5032996;28;20118;-30
2023/05/07 09:27:13;;;;;;;12.48;11.27;;;;;;;22.20;44.89;96614.19;5033157;28;20055;-29
2023/05/07 09:29:38;;;;;;;48.58;43.28;;;;;;;22.23;44.80;96620.72;5035319;28;20025;-30
2023/05/07 09:32:06;;;;;;;45.88;36.90;;;;;;;22.14;44.82;96618.19;5033024;28;20079;-29
2023/05/07 09:34:32;;;;;;;36.30;27.33;;;;;;;22.17;44.89;96623.47;5032995;28;20147;-29
2023/05/07 09:37:04;;;;;;;30.50;27.25;;;;;;;22.21;44.73;96610.19;5040411;28;20385;-30
2023/05/07 09:39:47;;;;;;;22.42;18.52;;;;;;;22.26;44.75;96613.44;5032688;28;20116;-31
2023/05/07 09:42:14;;;;;;;18.77;16.67;;;;;;;22.27;44.81;96615.69;5033034;28;20029;-29
2023/05/07 09:44:41;;;;;;;16.77;15.02;;;;;;;22.22;44.89;96610.94;5032914;28;20030;-29
2023/05/07 09:47:07;;;;;;;17.67;15.85;;;;;;;22.33;45.06;96621.25;5032665;28;20013;-30
2023/05/07 09:49:38;;;;;;;11.77;10.80;;;;;;;22.27;44.59;96617.72;5035295;28;20036;-29
2023/05/07 09:52:06;;;;;;;11.65;9.00;;;;;;;22.32;45.05;96614.97;5036314;28;20119;-29
2023/05/07 09:54:34;;;;;;;8.63;7.63;;;;;;;22.28;44.81;96611.69;5036515;28;20445;-30
2023/05/07 09:57:05;;;;;;;11.38;10.18;;;;;;;22.29;44.53;96618.72;5035421;28;20063;-29
2023/05/07 09:59:32;;;;;;;9.38;7.90;;;;;;;22.38;44.09;96614.97;5043618;28;20029;-29
2023/05/07 10:01:59;;;;;;;17.45;11.98;;;;;;;22.32;44.38;96608.69;5036237;28;20020;-31
2023/05/07 10:04:28;;;;;;;9.27;7.57;;;;;;;22.47;44.03;96609.22;5036000;28;20029;-29
2023/05/07 10:06:55;;;;;;;17.00;13.45;;;;;;;22.42;43.95;96604.41;5036477;28;20057;-29
2023/05/07 10:09:21;;;;;;;10.30;8.15;;;;;;;22.38;44.41;96612.19;5036166;28;20458;-29
2023/05/07 10:11:49;;;;;;;15.65;9.73;;;;;;;22.45;43.91;96604.19;5036137;28;20029;-30
2023/05/07 10:14:15;;;;;;;12.73;9.45;;;;;;;22.45;43.33;96608.97;5036299;28;20092;-30
2023/05/07 10:16:41;;;;;;;13.73;9.30;;;;;;;22.43;43.11;96609.44;5036080;28;20104;-30
2023/05/07 10:19:19;;;;;;;17.77;12.85;;;;;;;22.46;42.49;96608.47;5035952;28;20450;-29
2023/05/07 10:21:48;;;;;;;17.88;12.02;;;;;;;22.49;43.01;96601.19;5043420;28;20025;-29
2023/05/07 10:24:31;;;;;;;11.95;8.30;;;;;;;22.55;42.64;96605.44;5036119;28;20465;-29
2023/05/07 10:26:59;;;;;;;14.88;9.98;;;;;;;22.48;42.95;96605.94;5036138;28;20028;-30
2023/05/07 10:29:27;;;;;;;14.32;9.27;;;;;;;22.49;42.82;96609.47;5035880;28;20025;-31
2023/05/07 10:32:14;;;;;;;14.00;9.43;;;;;;;22.56;42.64;96606.19;5043345;28;20052;-29
2023/05/07 10:34:45;;;;;;;20.33;11.80;;;;;;;22.48;43.22;96600.44;5035997;28;20433;-30
2023/05/07 10:37:12;;;;;;;19.92;12.00;;;;;;;22.60;42.93;96603.19;5035552;28;20083;-30
2023/05/07 10:39:37;;;;;;;22.23;12.80;;;;;;;22.58;43.17;96604.44;5035496;28;20021;-30
2023/05/07 10:42:11;;;;;;;13.27;7.63;;;;;;;22.58;43.42;96600.94;5050446;28;20362;-29
2023/05/07 10:44:38;;;;;;;13.52;8.15;;;;;;;22.56;43.68;96601.44;5035493;28;20033;-29
2023/05/07 10:47:11;;;;;;;9.68;5.93;;;;;;;22.70;43.80;96598.91;5035367;28;20017;-29
2023/05/07 10:50:05;;;;;;;7.18;4.53;;;;;;;22.65;44.01;96594.13;5035232;28;20026;-29
2023/05/07 10:52:31;;;;;;;6.80;3.95;;;;;;;22.63;43.92;96593.88;5035237;28;20040;-29
2023/05/07 10:55:25;;;;;;;6.28;3.22;;;;;;;22.68;43.74;96595.91;5035043;28;20176;-29
2023/05/07 10:57:50;;;;;;;4.82;3.08;;;;;;;22.69;43.85;96589.13;5037052;28;20070;-29
2023/05/07 11:00:25;;;;;;;4.78;2.20;;;;;;;22.71;44.15;96592.88;5041385;28;20025;-30
2023/05/07 11:03:00;;;;;;;5.78;2.38;;;;;;;22.75;43.53;96589.88;5035273;28;20036;-30
2023/05/07 11:05:29;;;;;;;2.03;1.70;;;;;;;22.82;43.53;96583.84;5049353;28;20024;-30
2023/05/07 11:08:01;;;;;;;3.40;1.75;;;;;;;22.72;44.02;96590.88;5035080;28;20049;-30
2023/05/07 11:10:48;;;;;;;2.25;1.67;;;;;;;22.74;44.21;96582.84;5034975;28;20049;-29
2023/05/07 11:13:14;;;;;;;2.72;1.80;;;;;;;22.78;44.09;96586.13;5035362;28;20025;-29
2023/05/07 11:15:45;;;;;;;2.75;1.55;;;;;;;22.80;44.46;96589.88;5034977;28;20036;-29
2023/05/07 11:18:15;;;;;;;3.13;1.92;;;;;;;22.84;44.47;96586.88;5034870;28;20087;-30
2023/05/07 11:20:50;;;;;;;6.05;2.05;;;;;;;22.79;44.34;96585.63;5034645;28;20094;-29
2023/05/07 11:23:37;;;;;;;2.53;1.42;;;;;;;22.81;44.25;96587.88;5034843;28;20510;-29
2023/05/07 11:26:05;;;;;;;2.47;1.33;;;;;;;22.87;44.26;96588.66;5034692;28;20021;-29
2023/05/07 11:28:36;;;;;;;2.08;1.45;;;;;;;22.90;43.94;96582.09;5034958;28;20048;-29